Time;durP1;ratioP1;P1;durP2;ratioP2;P2;SDS_P1;SDS_P2;PMS_P1;PMS_P2;Temp;Humidity;BMP_temperature;BMP_pressure;BME280_temperature;BME280_humidity;BME280_pressure;Samples;Min_cycle;Max_cycle;Signal;HPM_P1;HPM_P2
2022/03/03 00:00:15;;;;;;;47.30;21.38;;;;;;;2.08;63.69;102009.88;5052816;28;20017;-81
2022/03/03 00:02:42;;;;;;;46.47;20.80;;;;;;;2.06;64.19;102000.28;5040902;28;20009;-81
2022/03/03 00:05:08;;;;;;;46.08;21.10;;;;;;;2.04;64.18;102005.31;5043565;28;20017;-81
2022/03/03 00:07:34;;;;;;;41.85;19.73;;;;;;;2.02;63.76;102006.84;5043355;28;20015;-81
2022/03/03 00:09:59;;;;;;;44.45;21.13;;;;;;;1.98;64.34;102001.38;5053816;28;20024;-81
2022/03/03 00:12:25;;;;;;;44.00;20.70;;;;;;;1.94;64.27;101996.75;5047103;28;20088;-81
2022/03/03 00:14:50;;;;;;;43.25;20.55;;;;;;;1.90;64.20;102001.66;5052261;28;20024;-81
2022/03/03 00:17:16;;;;;;;44.70;20.65;;;;;;;1.88;64.35;102002.31;5049917;28;20025;-80
2022/03/03 00:19:42;;;;;;;41.60;20.20;;;;;;;1.86;65.69;101994.50;5052495;28;20029;-80
2022/03/03 00:22:08;;;;;;;41.30;20.33;;;;;;;1.85;65.67;101994.38;5054486;28;20029;-80
2022/03/03 00:24:33;;;;;;;45.63;20.75;;;;;;;1.83;65.16;101999.41;5046136;28;20005;-80
2022/03/03 00:26:59;;;;;;;39.78;19.70;;;;;;;1.80;65.26;101990.56;5044310;28;20029;-80
2022/03/03 00:29:24;;;;;;;41.00;19.85;;;;;;;1.79;65.26;102005.06;5045642;28;20021;-80
2022/03/03 00:31:49;;;;;;;39.28;20.23;;;;;;;1.77;64.46;101991.22;5055893;28;20028;-80
2022/03/03 00:34:15;;;;;;;43.15;21.00;;;;;;;1.73;64.46;101997.78;5051367;28;20022;-80
2022/03/03 00:36:41;;;;;;;41.22;19.65;;;;;;;1.70;65.15;101992.41;5053655;28;20031;-80
2022/03/03 00:39:07;;;;;;;41.08;20.58;;;;;;;1.69;65.01;101997.44;5048579;28;20080;-80
2022/03/03 00:41:32;;;;;;;40.03;19.33;;;;;;;1.66;65.52;101992.94;5047424;28;20024;-80
2022/03/03 00:43:58;;;;;;;41.55;20.05;;;;;;;1.62;65.59;101990.03;5044662;28;20017;-81
2022/03/03 00:46:25;;;;;;;40.47;19.95;;;;;;;1.58;65.77;101990.56;5036085;28;20309;-80
2022/03/03 00:48:51;;;;;;;42.15;19.90;;;;;;;1.53;65.26;101982.50;5040717;28;20063;-80
2022/03/03 00:51:18;;;;;;;40.65;20.35;;;;;;;1.49;66.06;101981.38;5049963;28;20089;-80
2022/03/03 00:53:43;;;;;;;40.28;20.33;;;;;;;1.48;66.02;101989.84;5049768;28;20022;-80
2022/03/03 00:56:08;;;;;;;38.33;19.75;;;;;;;1.44;65.53;101985.22;5046967;28;20028;-80
2022/03/03 00:58:33;;;;;;;40.08;20.08;;;;;;;1.42;65.56;101986.81;5041031;28;20025;-80
2022/03/03 01:01:01;;;;;;;40.35;19.77;;;;;;;1.40;65.27;101980.63;5050590;28;20033;-80
2022/03/03 01:03:29;;;;;;;44.90;19.60;;;;;;;1.36;65.39;101978.59;5044199;28;20067;-80
2022/03/03 01:05:55;;;;;;;43.45;19.42;;;;;;;1.35;66.13;101984.53;5053333;28;20021;-80
2022/03/03 01:08:20;;;;;;;41.08;19.60;;;;;;;1.29;66.11;101984.00;5041467;28;20029;-80
2022/03/03 01:10:46;;;;;;;37.72;18.63;;;;;;;1.27;65.71;101985.56;5046734;28;20025;-80
2022/03/03 01:13:11;;;;;;;41.80;19.70;;;;;;;1.25;67.12;101982.00;5050669;28;20024;-80
2022/03/03 01:15:37;;;;;;;37.50;19.20;;;;;;;1.21;67.13;101986.88;5045497;28;20021;-80
2022/03/03 01:18:02;;;;;;;37.67;19.48;;;;;;;1.19;67.49;101983.28;5051302;28;20259;-80
2022/03/03 01:20:28;;;;;;;39.95;20.63;;;;;;;1.17;66.93;101984.84;5048648;28;20063;-80
2022/03/03 01:22:54;;;;;;;38.17;18.98;;;;;;;1.16;66.15;101982.13;5049980;28;20009;-80
2022/03/03 01:25:20;;;;;;;39.38;19.85;;;;;;;1.12;65.87;101986.13;5046328;28;20014;-80
2022/03/03 01:27:45;;;;;;;37.00;18.95;;;;;;;1.08;66.01;101986.66;5036377;28;20032;-80
2022/03/03 01:30:11;;;;;;;39.50;19.88;;;;;;;1.07;66.20;101983.97;5044206;28;20039;-80
2022/03/03 01:32:37;;;;;;;37.38;19.08;;;;;;;1.05;66.21;101978.72;5055430;28;20293;-80
2022/03/03 01:35:03;;;;;;;33.63;17.73;;;;;;;1.03;66.21;101977.72;5055967;28;20021;-80
2022/03/03 01:37:28;;;;;;;40.47;19.52;;;;;;;1.02;66.48;101973.34;5054261;28;20037;-80
2022/03/03 01:39:53;;;;;;;38.78;18.63;;;;;;;0.97;66.58;101959.22;5047158;28;20026;-80
2022/03/03 01:42:19;;;;;;;38.72;19.33;;;;;;;0.95;66.13;101964.25;5056506;28;20309;-80
2022/03/03 01:44:45;;;;;;;37.65;18.90;;;;;;;0.92;66.35;101958.88;5049772;28;20044;-80
2022/03/03 01:47:21;;;;;;;35.20;18.65;;;;;;;0.89;66.82;101953.50;5052660;28;20049;-80
2022/03/03 01:49:49;;;;;;;39.25;18.80;;;;;;;0.86;66.77;101958.38;5046360;28;20052;-80
2022/03/03 01:52:15;;;;;;;36.60;18.38;;;;;;;0.86;67.44;101955.81;5052038;28;20021;-80
2022/03/03 01:54:40;;;;;;;37.45;19.05;;;;;;;0.82;67.20;101944.41;5045685;28;20093;-80
2022/03/03 01:57:07;;;;;;;40.08;18.88;;;;;;;0.79;66.51;101951.84;5056422;28;20060;-80
2022/03/03 01:59:33;;;;;;;35.28;18.55;;;;;;;0.78;67.15;101950.09;5047944;28;20017;-80
2022/03/03 02:01:59;;;;;;;35.85;18.85;;;;;;;0.78;67.07;101949.16;5046057;28;20032;-80
2022/03/03 02:04:24;;;;;;;36.30;19.05;;;;;;;0.78;67.67;101936.34;5051646;28;20013;-80
2022/03/03 02:06:49;;;;;;;35.03;18.67;;;;;;;0.76;69.16;101931.09;5036755;28;20032;-80
2022/03/03 02:09:15;;;;;;;34.15;18.40;;;;;;;0.73;70.08;101927.41;5050671;28;20030;-80
2022/03/03 02:11:41;;;;;;;36.60;17.92;;;;;;;0.68;69.83;101927.00;5044538;28;20029;-80
2022/03/03 02:14:06;;;;;;;35.08;18.38;;;;;;;0.65;70.58;101929.31;5036984;28;20239;-80
2022/03/03 02:16:32;;;;;;;31.92;17.92;;;;;;;0.60;70.67;101931.50;5049053;28;20029;-80
2022/03/03 02:18:57;;;;;;;33.55;17.63;;;;;;;0.54;69.97;101923.31;5038360;28;20288;-80
2022/03/03 02:21:22;;;;;;;37.50;18.10;;;;;;;0.51;70.14;101921.41;5046276;28;20017;-80
2022/03/03 02:23:48;;;;;;;35.70;18.38;;;;;;;0.50;69.85;101923.84;5051815;28;20013;-80
2022/03/03 02:26:21;;;;;;;36.33;17.95;;;;;;;0.49;70.01;101920.41;5044107;28;20168;-80
2022/03/03 02:28:51;;;;;;;34.30;18.40;;;;;;;0.47;69.11;101918.47;5051488;28;20043;-80
2022/03/03 02:31:17;;;;;;;41.95;18.75;;;;;;;0.44;68.88;101918.22;5047288;28;20206;-79
2022/03/03 02:33:42;;;;;;;32.47;16.98;;;;;;;0.43;69.10;101917.31;5043682;28;20032;-79
2022/03/03 02:36:40;;;;;;;33.22;17.77;;;;;;;0.43;69.06;101914.75;5046834;28;20021;-79
2022/03/03 02:39:06;;;;;;;36.22;18.40;;;;;;;0.40;69.29;101917.06;5046678;28;20056;-86
2022/03/03 02:41:31;;;;;;;32.67;17.70;;;;;;;0.38;69.01;101922.81;5044142;28;20264;-86
2022/03/03 02:43:58;;;;;;;33.10;17.23;;;;;;;0.37;69.01;101919.38;5048910;28;20867;-86
2022/03/03 02:46:24;;;;;;;34.08;17.63;;;;;;;0.36;69.59;101924.38;5050605;28;20079;-86
2022/03/03 02:48:49;;;;;;;34.80;18.00;;;;;;;0.31;69.41;101922.34;5058530;28;20230;-86
2022/03/03 02:51:15;;;;;;;33.13;17.05;;;;;;;0.30;69.36;101915.41;5045254;28;20084;-86
2022/03/03 02:53:40;;;;;;;36.95;18.17;;;;;;;0.30;69.52;101911.94;5046438;28;20021;-86
2022/03/03 02:56:07;;;;;;;32.20;17.30;;;;;;;0.29;69.32;101912.72;5048348;28;20214;-85
2022/03/03 02:58:32;;;;;;;33.80;17.08;;;;;;;0.26;70.38;101912.47;5051034;28;20017;-85
2022/03/03 03:00:58;;;;;;;33.33;18.00;;;;;;;0.27;71.31;101914.28;5046591;28;20180;-86
2022/03/03 03:03:24;;;;;;;34.70;17.13;;;;;;;0.24;70.91;101914.03;5052479;28;20201;-86
2022/03/03 03:05:50;;;;;;;32.47;15.90;;;;;;;0.23;70.97;101912.22;5046766;28;20209;-85
2022/03/03 03:08:15;;;;;;;33.90;17.33;;;;;;;0.20;71.12;101911.97;5057383;28;20084;-80
2022/03/03 03:10:41;;;;;;;37.75;17.75;;;;;;;0.16;70.27;101915.97;5046952;28;20013;-80
2022/03/03 03:13:07;;;;;;;33.00;17.25;;;;;;;0.13;71.10;101908.91;5054935;28;20040;-80
2022/03/03 03:15:33;;;;;;;32.80;17.25;;;;;;;0.13;70.07;101918.25;5057155;28;20044;-80
2022/03/03 03:18:13;;;;;;;32.47;17.75;;;;;;;0.11;70.54;101909.53;5053138;28;20019;-80
2022/03/03 03:20:40;;;;;;;31.27;17.05;;;;;;;0.09;70.38;101909.41;5046120;28;20042;-80
2022/03/03 03:23:10;;;;;;;30.40;16.75;;;;;;;0.07;70.40;101905.81;5053288;28;20271;-80
2022/03/03 03:25:37;;;;;;;32.97;17.58;;;;;;;0.06;71.56;101898.00;5044729;28;20060;-80
2022/03/03 03:28:05;;;;;;;31.13;16.58;;;;;;;0.03;71.14;101896.09;5056653;28;20020;-80
2022/03/03 03:30:30;;;;;;;32.58;16.92;;;;;;;0.03;71.05;101897.75;5042296;28;20077;-80
2022/03/03 03:32:56;;;;;;;34.95;18.27;;;;;;;-0.02;70.61;101890.56;5043283;28;20033;-80
2022/03/03 03:35:22;;;;;;;32.63;17.30;;;;;;;-0.04;70.67;101888.69;5051181;28;20017;-80
2022/03/03 03:37:48;;;;;;;36.42;18.58;;;;;;;-0.08;71.38;101884.06;5060758;28;20029;-80
2022/03/03 03:40:13;;;;;;;31.20;16.88;;;;;;;-0.11;71.49;101886.38;5056236;28;20016;-80
2022/03/03 03:42:39;;;;;;;34.10;17.95;;;;;;;-0.14;71.19;101888.69;5051683;28;20256;-80
2022/03/03 03:45:04;;;;;;;33.08;17.77;;;;;;;-0.17;71.08;101889.31;5042993;28;20021;-80
2022/03/03 03:47:30;;;;;;;39.70;17.73;;;;;;;-0.21;71.50;101877.03;5051832;28;20322;-80
2022/03/03 03:49:55;;;;;;;33.88;17.65;;;;;;;-0.23;70.94;101879.47;5049844;28;20029;-80
2022/03/03 03:52:21;;;;;;;35.78;18.25;;;;;;;-0.26;70.96;101874.09;5042177;28;20143;-80
2022/03/03 03:54:46;;;;;;;34.75;17.63;;;;;;;-0.27;70.86;101871.38;5053618;28;20185;-80
2022/03/03 03:57:11;;;;;;;33.13;17.90;;;;;;;-0.30;71.18;101872.03;5050629;28;20280;-80
2022/03/03 03:59:37;;;;;;;32.80;17.08;;;;;;;-0.32;71.30;101867.53;5046940;28;20330;-81
2022/03/03 04:02:02;;;;;;;33.42;18.02;;;;;;;-0.36;71.74;101871.50;5046619;28;20056;-81
2022/03/03 04:04:27;;;;;;;31.40;17.05;;;;;;;-0.38;70.93;101870.47;5047350;28;20014;-81
2022/03/03 04:06:53;;;;;;;32.78;17.05;;;;;;;-0.39;71.23;101876.34;5043850;28;20201;-85
2022/03/03 04:09:18;;;;;;;31.90;16.77;;;;;;;-0.41;71.26;101872.78;5048702;28;20049;-84
2022/03/03 04:11:43;;;;;;;31.38;16.67;;;;;;;-0.43;71.04;101876.88;5053804;28;20029;-84
2022/03/03 04:14:09;;;;;;;35.15;17.40;;;;;;;-0.46;71.22;101874.06;5042658;28;20275;-85
2022/03/03 04:16:35;;;;;;;31.75;16.60;;;;;;;-0.49;71.45;101879.81;5047030;28;20067;-84
2022/03/03 04:19:01;;;;;;;32.75;17.30;;;;;;;-0.50;71.55;101870.34;5043692;28;20010;-84
2022/03/03 04:21:26;;;;;;;34.22;17.98;;;;;;;-0.51;71.13;101872.78;5047383;28;20021;-84
2022/03/03 04:23:51;;;;;;;32.83;17.52;;;;;;;-0.51;71.39;101862.53;5047519;28;20016;-84
2022/03/03 04:26:17;;;;;;;34.75;16.88;;;;;;;-0.52;71.37;101859.09;5050736;28;20036;-84
2022/03/03 04:28:42;;;;;;;33.35;16.55;;;;;;;-0.54;71.51;101858.97;5050297;28;20028;-84
2022/03/03 04:31:07;;;;;;;34.53;16.25;;;;;;;-0.56;71.73;101857.91;5056342;28;20244;-83
2022/03/03 04:33:33;;;;;;;28.73;15.88;;;;;;;-0.58;71.37;101853.44;5051955;28;20112;-84
2022/03/03 04:35:58;;;;;;;35.00;17.00;;;;;;;-0.61;71.80;101851.53;5048904;28;20067;-84
2022/03/03 04:38:24;;;;;;;31.67;17.27;;;;;;;-0.61;71.99;101848.06;5050049;28;20268;-84
2022/03/03 04:40:50;;;;;;;34.63;17.02;;;;;;;-0.61;71.66;101842.94;5046464;28;20028;-84
2022/03/03 04:43:15;;;;;;;35.72;16.85;;;;;;;-0.62;71.72;101846.25;5054910;28;20021;-84
2022/03/03 04:45:42;;;;;;;32.45;16.30;;;;;;;-0.64;71.88;101845.22;5047272;28;20089;-84
2022/03/03 04:48:08;;;;;;;33.72;16.17;;;;;;;-0.66;72.24;101842.53;5049799;28;20119;-84
2022/03/03 04:50:33;;;;;;;31.67;16.75;;;;;;;-0.68;72.33;101831.31;5063551;28;20206;-84
2022/03/03 04:52:59;;;;;;;30.30;17.08;;;;;;;-0.66;72.40;101831.44;5049874;28;20032;-84
2022/03/03 04:55:24;;;;;;;30.35;16.40;;;;;;;-0.65;72.09;101830.63;5050211;28;20256;-83
2022/03/03 04:57:50;;;;;;;30.58;15.82;;;;;;;-0.66;72.50;101832.31;5051654;28;20275;-83
2022/03/03 05:00:15;;;;;;;30.85;16.05;;;;;;;-0.66;72.66;101829.75;5046079;28;20067;-83
2022/03/03 05:02:40;;;;;;;31.75;16.75;;;;;;;-0.68;72.39;101831.31;5047038;28;20024;-84
2022/03/03 05:05:06;;;;;;;29.50;16.13;;;;;;;-0.70;72.19;101837.94;5052967;28;20120;-84
2022/03/03 05:07:32;;;;;;;31.70;16.45;;;;;;;-0.72;72.68;101834.34;5032607;28;20267;-80
2022/03/03 05:09:57;;;;;;;30.50;16.38;;;;;;;-0.73;72.76;101832.56;5050505;28;20026;-80
2022/03/03 05:12:23;;;;;;;30.67;15.85;;;;;;;-0.74;72.56;101841.00;5045572;28;20110;-80
2022/03/03 05:14:48;;;;;;;32.08;16.17;;;;;;;-0.75;72.00;101844.34;5055966;28;20033;-80
2022/03/03 05:17:13;;;;;;;31.67;16.05;;;;;;;-0.79;72.55;101834.59;5057812;28;20316;-80
2022/03/03 05:19:39;;;;;;;31.80;16.05;;;;;;;-0.77;72.78;101838.16;5046040;28;20044;-80
2022/03/03 05:22:04;;;;;;;32.47;15.77;;;;;;;-0.79;72.80;101838.03;5051025;28;20014;-80
2022/03/03 05:24:29;;;;;;;29.30;16.05;;;;;;;-0.78;72.54;101838.94;5044837;28;20013;-81
2022/03/03 05:26:54;;;;;;;33.03;16.48;;;;;;;-0.81;72.57;101836.13;5063488;28;20097;-81
2022/03/03 05:29:20;;;;;;;29.85;15.73;;;;;;;-0.81;73.25;101843.78;5045290;28;20093;-80
2022/03/03 05:31:45;;;;;;;30.17;17.33;;;;;;;-0.80;72.74;101840.47;5044498;28;20256;-81
2022/03/03 05:34:10;;;;;;;31.38;15.55;;;;;;;-0.78;73.04;101841.50;5055089;28;20025;-80
2022/03/03 05:36:41;;;;;;;30.63;15.98;;;;;;;-0.79;73.01;101837.16;5050250;28;20263;-80
2022/03/03 05:39:06;;;;;;;29.55;15.68;;;;;;;-0.80;73.07;101850.72;5050414;28;20021;-80
2022/03/03 05:41:32;;;;;;;29.23;15.82;;;;;;;-0.84;72.95;101849.56;5038964;28;20028;-80
2022/03/03 05:43:58;;;;;;;32.80;15.68;;;;;;;-0.87;73.37;101854.38;5045733;28;20032;-80
2022/03/03 05:46:24;;;;;;;30.63;15.88;;;;;;;-0.90;73.29;101854.13;5040177;28;20063;-81
2022/03/03 05:48:50;;;;;;;27.98;15.63;;;;;;;-0.94;73.71;101850.44;5046758;28;20021;-80
2022/03/03 05:51:15;;;;;;;33.42;16.02;;;;;;;-0.95;73.25;101851.19;5049282;28;20171;-80
2022/03/03 05:53:41;;;;;;;32.88;16.63;;;;;;;-0.96;73.09;101853.63;5057289;28;20090;-80
2022/03/03 05:56:09;;;;;;;27.95;15.77;;;;;;;-0.98;72.98;101845.81;5050704;28;20025;-81
2022/03/03 05:58:41;;;;;;;29.38;15.38;;;;;;;-0.99;73.46;101843.13;5053922;28;20346;-80
2022/03/03 06:01:09;;;;;;;31.10;15.73;;;;;;;-1.02;73.26;101843.75;5034294;28;20022;-81
2022/03/03 06:03:35;;;;;;;27.25;15.88;;;;;;;-1.03;72.90;101847.06;5055790;28;20089;-80
2022/03/03 06:06:25;;;;;;;29.33;15.73;;;;;;;-1.04;73.61;101845.28;5036379;28;20028;-81
2022/03/03 06:09:09;;;;;;;;;;;;;;;-1.00;72.18;101842.25;5055765;28;20028;-80
2022/03/03 06:11:41;;;;;;;30.13;15.60;;;;;;;-1.07;73.51;101842.47;5048715;28;19924;-80
2022/03/03 06:14:08;;;;;;;32.45;15.68;;;;;;;-1.09;73.77;101836.31;5048544;28;20071;-81
2022/03/03 06:16:39;;;;;;;33.20;15.80;;;;;;;-1.10;73.43;101839.63;5048288;28;20037;-81
2022/03/03 06:19:04;;;;;;;31.77;15.60;;;;;;;-1.12;73.44;101838.59;5042019;28;20036;-81
2022/03/03 06:21:30;;;;;;;32.38;16.35;;;;;;;-1.14;72.83;101843.59;5054417;28;20178;-81
2022/03/03 06:23:56;;;;;;;32.38;15.82;;;;;;;-1.16;72.99;101844.22;5046788;28;20287;-81
2022/03/03 06:26:21;;;;;;;30.92;15.90;;;;;;;-1.18;73.33;101844.09;5048440;28;20021;-81
2022/03/03 06:28:47;;;;;;;31.35;15.85;;;;;;;-1.19;73.40;101841.41;5045629;28;20260;-81
2022/03/03 06:31:14;;;;;;;28.27;14.75;;;;;;;-1.19;73.95;101849.06;5051178;28;20247;-81
2022/03/03 06:33:40;;;;;;;31.33;16.10;;;;;;;-1.19;74.29;101852.50;5058356;28;20060;-81
2022/03/03 06:36:07;;;;;;;36.45;17.27;;;;;;;-1.18;74.89;101846.63;5049110;28;20168;-81
2022/03/03 06:38:33;;;;;;;28.20;14.95;;;;;;;-1.17;74.36;101848.44;5052861;28;20013;-84
2022/03/03 06:40:59;;;;;;;31.20;15.75;;;;;;;-1.18;74.03;101840.63;5041036;28;20329;-84
2022/03/03 06:43:27;;;;;;;32.20;15.73;;;;;;;-1.18;74.35;101838.09;5042405;28;20018;-85
2022/03/03 06:45:52;;;;;;;33.03;17.20;;;;;;;-1.15;74.27;101849.47;5044066;28;20017;-84
2022/03/03 06:48:18;;;;;;;30.83;16.52;;;;;;;-1.12;74.36;101848.84;5043132;28;20020;-84
2022/03/03 06:50:44;;;;;;;33.83;17.25;;;;;;;-1.08;74.35;101853.47;5045369;28;20669;-84
2022/03/03 06:53:10;;;;;;;33.35;17.05;;;;;;;-1.03;74.17;101857.28;5047951;28;20162;-84
2022/03/03 06:55:37;;;;;;;32.75;16.35;;;;;;;-0.90;73.48;101856.69;5048993;28;20283;-83
2022/03/03 06:58:03;;;;;;;34.42;17.38;;;;;;;-0.83;73.18;101859.00;5043900;28;20014;-84
2022/03/03 07:00:33;;;;;;;33.20;16.50;;;;;;;-0.76;73.50;101863.00;5044133;28;20025;-83
2022/03/03 07:03:00;;;;;;;32.47;17.23;;;;;;;-0.64;72.96;101864.03;5045530;28;20275;-84
2022/03/03 07:05:28;;;;;;;34.65;16.88;;;;;;;-0.32;72.38;101862.41;5042318;28;20049;-83
2022/03/03 07:07:54;;;;;;;33.30;16.95;;;;;;;-0.01;70.88;101869.31;5043938;28;20080;-84
2022/03/03 07:10:24;;;;;;;33.35;16.45;;;;;;;0.22;71.33;101869.41;5044098;28;20013;-83
2022/03/03 07:12:56;;;;;;;33.22;17.92;;;;;;;0.38;69.19;101874.13;5040958;28;20028;-84
2022/03/03 07:15:26;;;;;;;33.38;16.92;;;;;;;0.39;69.61;101879.41;5043301;28;20267;-84
2022/03/03 07:17:55;;;;;;;30.48;16.63;;;;;;;0.38;69.54;101875.03;5053246;28;20021;-84
2022/03/03 07:20:50;;;;;;;30.60;16.70;;;;;;;0.40;69.96;101877.72;5048197;28;20016;-83
2022/03/03 07:24:11;;;;;;;31.17;16.30;;;;;;;0.30;69.91;101874.38;5046835;28;20057;-84
2022/03/03 07:26:37;;;;;;;30.30;16.33;;;;;;;0.22;70.63;101877.09;5043993;28;20020;-83
2022/03/03 07:29:04;;;;;;;36.38;16.80;;;;;;;0.14;70.64;101882.50;5040062;28;20294;-83
2022/03/03 07:31:31;;;;;;;33.60;16.92;;;;;;;0.08;71.26;101879.44;5046765;28;20024;-83
2022/03/03 07:34:00;;;;;;;33.95;17.25;;;;;;;0.13;71.73;101882.38;5042794;28;20184;-84
2022/03/03 07:36:29;;;;;;;33.45;17.67;;;;;;;0.42;71.57;101884.78;5047859;28;20016;-83
2022/03/03 07:38:59;;;;;;;31.63;16.65;;;;;;;0.73;70.31;101882.09;5047275;28;20017;-83
2022/03/03 07:41:26;;;;;;;34.22;17.67;;;;;;;0.78;70.04;101870.56;5047213;28;20236;-83
2022/03/03 07:43:53;;;;;;;32.67;17.85;;;;;;;0.86;70.31;101873.72;5045797;28;20264;-83
2022/03/03 07:46:19;;;;;;;34.25;16.65;;;;;;;1.14;69.57;101871.63;5049785;28;20109;-83
2022/03/03 07:48:46;;;;;;;33.75;17.25;;;;;;;1.36;69.15;101874.22;5045026;28;20039;-83
2022/03/03 07:51:12;;;;;;;31.38;16.55;;;;;;;1.46;68.95;101869.78;5044022;28;20127;-83
2022/03/03 07:53:37;;;;;;;32.35;16.92;;;;;;;1.45;67.99;101871.47;5043006;28;20021;-83
2022/03/03 07:56:04;;;;;;;31.60;16.90;;;;;;;1.56;67.51;101874.84;5047096;28;20017;-83
2022/03/03 07:58:33;;;;;;;31.35;17.48;;;;;;;1.64;67.54;101875.47;5043873;28;20107;-83
2022/03/03 08:01:00;;;;;;;30.15;16.58;;;;;;;1.81;68.12;101879.28;5042756;28;20025;-83
2022/03/03 08:03:26;;;;;;;31.10;16.55;;;;;;;1.86;66.94;101878.84;5041709;28;20029;-83
2022/03/03 08:05:57;;;;;;;33.92;18.50;;;;;;;2.00;66.65;101878.97;5043804;28;20029;-83
2022/03/03 08:08:26;;;;;;;32.97;17.77;;;;;;;2.12;66.96;101879.91;5037143;28;20017;-83
2022/03/03 08:10:57;;;;;;;30.30;17.65;;;;;;;2.26;66.54;101880.94;5045069;28;20032;-83
2022/03/03 08:13:26;;;;;;;33.72;18.58;;;;;;;2.62;65.96;101886.97;5045575;28;20044;-83
2022/03/03 08:15:52;;;;;;;30.95;17.50;;;;;;;3.23;64.30;101882.75;5044863;28;20021;-83
2022/03/03 08:18:17;;;;;;;32.22;18.02;;;;;;;3.75;63.30;101890.59;5047867;28;20009;-84
2022/03/03 08:20:42;;;;;;;33.88;17.85;;;;;;;3.83;62.21;101889.44;5043867;28;20032;-84
2022/03/03 08:23:08;;;;;;;29.77;17.33;;;;;;;3.59;62.35;101883.50;5042998;28;20274;-85
2022/03/03 08:25:35;;;;;;;30.75;17.17;;;;;;;3.29;63.50;101879.72;5043080;28;20017;-86
2022/03/03 08:28:03;;;;;;;32.45;18.00;;;;;;;3.07;63.29;101879.88;5042748;28;20005;-87
2022/03/03 08:30:29;;;;;;;34.75;17.83;;;;;;;2.86;64.01;101874.97;5043009;28;20020;-88
2022/03/03 08:33:19;;;;;;;34.10;16.63;;;;;;;2.75;64.36;101874.22;5040179;28;20062;-88
2022/03/03 08:35:59;;;;;;;30.38;16.63;;;;;;;2.66;64.14;101872.66;5038614;28;20096;-87
2022/03/03 08:38:37;;;;;;;32.42;16.90;;;;;;;2.65;64.26;101876.94;5034827;28;20025;-86
2022/03/03 08:41:05;;;;;;;33.83;17.35;;;;;;;2.67;65.73;101879.63;5040742;28;20017;-86
2022/03/03 08:43:33;;;;;;;32.13;17.27;;;;;;;2.68;65.43;101876.22;5045582;28;20017;-86
2022/03/03 08:46:04;;;;;;;32.03;17.23;;;;;;;2.72;64.79;101876.59;5038118;28;20020;-86
2022/03/03 08:48:31;;;;;;;30.80;16.48;;;;;;;2.77;65.18;101876.91;5035442;28;20279;-85
2022/03/03 08:50:58;;;;;;;28.95;16.83;;;;;;;2.83;65.30;101874.78;5030483;28;20018;-84
2022/03/03 08:53:23;;;;;;;32.70;16.48;;;;;;;2.90;64.90;101873.53;5026535;28;20029;-83
2022/03/03 08:55:49;;;;;;;32.40;16.77;;;;;;;2.97;64.84;101870.63;5034692;28;20075;-84
2022/03/03 08:58:14;;;;;;;30.55;16.55;;;;;;;3.05;64.30;101873.72;5027264;28;20037;-84
2022/03/03 09:00:40;;;;;;;27.13;15.38;;;;;;;3.16;63.65;101874.47;5033370;28;20029;-82
2022/03/03 09:03:06;;;;;;;32.40;16.88;;;;;;;3.23;64.43;101872.44;5031455;28;20053;-82
2022/03/03 09:05:32;;;;;;;33.58;16.95;;;;;;;3.33;63.85;101871.38;5042659;28;20257;-82
2022/03/03 09:07:58;;;;;;;31.77;17.15;;;;;;;3.41;63.98;101877.97;5044252;28;20026;-82
2022/03/03 09:10:23;;;;;;;33.63;16.70;;;;;;;3.50;62.90;101874.25;5043306;28;20279;-82
2022/03/03 09:12:48;;;;;;;29.73;16.98;;;;;;;3.58;62.45;101879.13;5042910;28;20231;-82
2022/03/03 09:15:15;;;;;;;31.33;15.45;;;;;;;3.67;62.18;101878.88;5048576;28;20026;-83
2022/03/03 09:17:42;;;;;;;31.73;15.98;;;;;;;3.76;62.08;101878.59;5044725;28;20066;-82
2022/03/03 09:20:12;;;;;;;33.42;16.60;;;;;;;3.83;60.56;101883.38;5052983;28;20033;-83
2022/03/03 09:22:37;;;;;;;29.88;16.38;;;;;;;3.89;59.24;101875.19;5045140;28;20017;-82
2022/03/03 09:25:03;;;;;;;30.35;16.60;;;;;;;3.99;61.15;101880.16;5036590;28;20048;-83
2022/03/03 09:27:29;;;;;;;31.63;17.10;;;;;;;4.07;60.93;101873.84;5038390;28;20045;-84
2022/03/03 09:29:54;;;;;;;31.85;17.63;;;;;;;4.17;62.01;101875.31;5040519;28;20044;-85
2022/03/03 09:32:19;;;;;;;32.95;17.73;;;;;;;4.25;60.35;101866.41;5047953;28;20023;-85
2022/03/03 09:34:45;;;;;;;33.78;17.50;;;;;;;4.34;60.10;101872.19;5045368;28;20029;-84
2022/03/03 09:37:12;;;;;;;33.03;17.58;;;;;;;4.41;58.93;101862.25;5045353;28;20286;-85
2022/03/03 09:39:37;;;;;;;34.63;18.17;;;;;;;4.49;59.05;101861.03;5036773;28;20212;-84
2022/03/03 09:42:03;;;;;;;34.97;18.48;;;;;;;4.58;58.38;101861.66;5049763;28;20209;-85
2022/03/03 09:44:29;;;;;;;30.98;17.27;;;;;;;4.66;58.21;101857.88;5046146;28;20211;-84
2022/03/03 09:46:56;;;;;;;31.33;17.00;;;;;;;4.75;57.12;101854.09;5046653;28;20013;-85
2022/03/03 09:49:22;;;;;;;33.42;17.83;;;;;;;4.83;58.36;101848.59;5043118;28;20021;-84
2022/03/03 09:51:48;;;;;;;34.40;18.15;;;;;;;4.93;57.21;101844.91;5038578;28;20024;-85
2022/03/03 09:54:14;;;;;;;37.08;18.90;;;;;;;5.02;57.03;101852.34;5040479;28;20101;-85
2022/03/03 09:56:39;;;;;;;34.65;18.27;;;;;;;5.10;56.86;101855.41;5046146;28;20033;-84
2022/03/03 09:59:05;;;;;;;33.75;18.23;;;;;;;5.17;55.30;101850.72;5035240;28;20013;-85
2022/03/03 10:01:31;;;;;;;34.38;17.35;;;;;;;5.26;56.58;101858.16;5044268;28;20047;-85
2022/03/03 10:04:20;;;;;;;39.15;18.90;;;;;;;5.34;55.66;101856.91;5037931;28;20017;-84
2022/03/03 10:06:46;;;;;;;36.70;18.65;;;;;;;5.42;54.98;101854.81;5042854;28;20017;-84
2022/03/03 10:09:12;;;;;;;36.95;19.65;;;;;;;5.52;54.73;101853.69;5043917;28;20092;-84
2022/03/03 10:11:58;;;;;;;37.08;19.33;;;;;;;5.63;56.21;101851.72;5052773;28;20029;-84
2022/03/03 10:14:35;;;;;;;37.45;19.67;;;;;;;5.74;56.15;101850.69;5033392;28;20013;-83
2022/03/03 10:17:01;;;;;;;38.75;20.80;;;;;;;5.80;55.44;101855.34;5038729;28;20232;-81
2022/03/03 10:19:27;;;;;;;36.75;20.20;;;;;;;5.88;55.31;101844.63;5029043;28;20256;-80
2022/03/03 10:21:52;;;;;;;41.40;20.20;;;;;;;5.97;54.01;101846.91;5038083;28;20017;-80
2022/03/03 10:24:25;;;;;;;40.15;20.92;;;;;;;6.05;55.24;101842.16;5039641;28;20274;-80
2022/03/03 10:27:00;;;;;;;38.20;19.08;;;;;;;6.17;54.57;101852.31;5043285;28;20226;-80
2022/03/03 10:29:28;;;;;;;39.63;20.63;;;;;;;6.24;51.85;101838.94;5045668;28;20016;-80
2022/03/03 10:31:55;;;;;;;39.22;20.55;;;;;;;6.33;51.89;101839.47;5051808;28;20029;-80
2022/03/03 10:34:23;;;;;;;38.88;19.58;;;;;;;6.43;50.70;101835.69;5052748;28;20032;-78
2022/03/03 10:37:03;;;;;;;37.60;19.80;;;;;;;6.55;52.41;101838.97;5051083;28;20017;-81
2022/03/03 10:39:48;;;;;;;33.47;18.65;;;;;;;6.68;51.06;101827.63;5049997;28;20024;-80
2022/03/03 10:42:19;;;;;;;42.10;20.10;;;;;;;6.78;48.97;101829.91;5039683;28;20147;-80
2022/03/03 10:44:45;;;;;;;37.03;18.85;;;;;;;6.90;49.73;101831.38;5036781;28;20017;-80
2022/03/03 10:47:12;;;;;;;36.95;19.42;;;;;;;7.02;49.80;101828.56;5044145;28;20052;-80
2022/03/03 10:49:40;;;;;;;45.65;21.00;;;;;;;7.13;50.59;101824.84;5047419;28;20017;-81
2022/03/03 10:52:22;;;;;;;37.75;19.13;;;;;;;7.24;48.71;101835.78;5042375;28;20021;-80
2022/03/03 10:54:51;;;;;;;37.85;18.45;;;;;;;7.34;49.38;101830.25;5044736;28;20037;-80
2022/03/03 10:57:38;;;;;;;35.35;19.13;;;;;;;7.44;50.72;101827.38;5054229;28;20017;-81
2022/03/03 11:00:15;;;;;;;37.58;19.20;;;;;;;7.57;49.94;101825.41;5043234;28;20025;-80
2022/03/03 11:02:44;;;;;;;37.97;18.48;;;;;;;7.64;47.60;101820.59;5044843;28;20036;-80
2022/03/03 11:05:11;;;;;;;38.92;19.02;;;;;;;7.74;49.41;101819.38;5057866;28;20032;-80
2022/03/03 11:07:42;;;;;;;35.97;18.23;;;;;;;7.81;48.67;101816.28;5048840;28;20024;-80
2022/03/03 11:10:13;;;;;;;35.50;18.55;;;;;;;7.89;45.27;101818.34;5051563;28;20100;-80
2022/03/03 11:12:41;;;;;;;37.72;18.48;;;;;;;7.98;47.09;101824.91;5043798;28;20056;-80
2022/03/03 11:15:07;;;;;;;35.85;16.88;;;;;;;8.05;44.85;101820.91;5048477;28;20048;-80